sensor_id;sensor_type;location;lat;lon;timestamp;pressure;altitude;pressure_sealevel;temperature;humidity
59654;BME280;66556;52.008;5.432;2023-03-05T00:02:46;102290.0;;;12.59;52.4
59654;BME280;66556;52.008;5.432;2023-03-05T00:04:22;102290.0;;;12.8;51.45
59654;BME280;66556;52.008;5.432;2023-03-05T00:05:58;102293.0;;;12.59;52.49
59654;BME280;66556;52.008;5.432;2023-03-05T00:09:12;102287.0;;;12.35;52.55
59654;BME280;66556;52.008;5.432;2023-03-05T00:10:54;102288.0;;;12.47;52.67
59654;BME280;66556;52.008;5.432;2023-03-05T00:12:31;102284.0;;;12.63;52.15
59654;BME280;66556;52.008;5.432;2023-03-05T00:14:09;102280.0;;;12.8;51.42
59654;BME280;66556;52.008;5.432;2023-03-05T00:17:22;102284.0;;;12.65;51.92
59654;BME280;66556;52.008;5.432;2023-03-05T00:18:59;102280.0;;;12.53;52.66
59654;BME280;66556;52.008;5.432;2023-03-05T00:20:36;102277.0;;;12.47;52.94
59654;BME280;66556;52.008;5.432;2023-03-05T00:23:49;102268.0;;;12.6;52.45
59654;BME280;66556;52.008;5.432;2023-03-05T00:25:26;102270.0;;;12.76;51.99
59654;BME280;66556;52.008;5.432;2023-03-05T00:27:03;102270.0;;;12.63;52.02
59654;BME280;66556;52.008;5.432;2023-03-05T00:28:39;102270.0;;;12.42;53.12
59654;BME280;66556;52.008;5.432;2023-03-05T00:31:53;102271.0;;;12.59;52.67
59654;BME280;66556;52.008;5.432;2023-03-05T00:33:29;102268.0;;;12.57;52.52
59654;BME280;66556;52.008;5.432;2023-03-05T00:35:06;102265.0;;;12.54;52.32
59654;BME280;66556;52.008;5.432;2023-03-05T00:38:21;102259.0;;;12.44;52.91
59654;BME280;66556;52.008;5.432;2023-03-05T00:39:58;102264.0;;;12.5;53.02
59654;BME280;66556;52.008;5.432;2023-03-05T00:41:34;102260.0;;;12.52;52.34
59654;BME280;66556;52.008;5.432;2023-03-05T00:44:46;102259.0;;;12.62;52.45
59654;BME280;66556;52.008;5.432;2023-03-05T00:46:22;102256.0;;;12.67;52.08
59654;BME280;66556;52.008;5.432;2023-03-05T00:47:59;102253.0;;;12.76;51.8
59654;BME280;66556;52.008;5.432;2023-03-05T00:49:36;102251.0;;;12.68;51.9
59654;BME280;66556;52.008;5.432;2023-03-05T00:52:50;102250.0;;;12.72;51.76
59654;BME280;66556;52.008;5.432;2023-03-05T00:54:27;102245.0;;;12.58;52.4
59654;BME280;66556;52.008;5.432;2023-03-05T00:56:04;102249.0;;;12.83;51.19
59654;BME280;66556;52.008;5.432;2023-03-05T00:59:16;102242.0;;;12.81;50.87
59654;BME280;66556;52.008;5.432;2023-03-05T01:00:56;102240.0;;;12.86;50.82
59654;BME280;66556;52.008;5.432;2023-03-05T01:02:33;102237.0;;;12.86;51.26
59654;BME280;66556;52.008;5.432;2023-03-05T01:05:45;102236.0;;;12.59;51.82
59654;BME280;66556;52.008;5.432;2023-03-05T01:07:21;102234.0;;;12.61;51.9
59654;BME280;66556;52.008;5.432;2023-03-05T01:08:57;102241.0;;;12.41;52.49
59654;BME280;66556;52.008;5.432;2023-03-05T01:10:33;102236.0;;;12.41;52.74
59654;BME280;66556;52.008;5.432;2023-03-05T01:13:46;102235.0;;;12.33;52.57
59654;BME280;66556;52.008;5.432;2023-03-05T01:15:23;102231.0;;;12.14;53.17
59654;BME280;66556;52.008;5.432;2023-03-05T01:17:00;102232.0;;;12.29;52.64
59654;BME280;66556;52.008;5.432;2023-03-05T01:20:17;102228.0;;;12.56;52.15
59654;BME280;66556;52.008;5.432;2023-03-05T01:21:55;102225.0;;;12.31;52.85
59654;BME280;66556;52.008;5.432;2023-03-05T01:23:33;102224.0;;;12.32;52.95
59654;BME280;66556;52.008;5.432;2023-03-05T01:25:09;102220.0;;;12.55;51.82
59654;BME280;66556;52.008;5.432;2023-03-05T01:28:23;102217.0;;;12.35;52.52
59654;BME280;66556;52.008;5.432;2023-03-05T01:30:00;102213.0;;;12.39;52.64
59654;BME280;66556;52.008;5.432;2023-03-05T01:31:36;102208.0;;;12.45;52.05
59654;BME280;66556;52.008;5.432;2023-03-05T01:34:49;102208.0;;;12.29;52.67
59654;BME280;66556;52.008;5.432;2023-03-05T01:36:26;102203.0;;;12.42;52.24
59654;BME280;66556;52.008;5.432;2023-03-05T01:38:02;102205.0;;;12.15;53.32
59654;BME280;66556;52.008;5.432;2023-03-05T01:41:15;102203.0;;;12.1;53.83
59654;BME280;66556;52.008;5.432;2023-03-05T01:42:59;102198.0;;;12.0;53.96
59654;BME280;66556;52.008;5.432;2023-03-05T01:44:35;102193.0;;;12.02;54.04
59654;BME280;66556;52.008;5.432;2023-03-05T01:46:44;102191.0;;;11.99;54.05
59654;BME280;66556;52.008;5.432;2023-03-05T01:48:20;102185.0;;;12.1;53.6
59654;BME280;66556;52.008;5.432;2023-03-05T01:51:37;102180.0;;;12.23;53.4
59654;BME280;66556;52.008;5.432;2023-03-05T01:53:16;102176.0;;;12.17;53.25
59654;BME280;66556;52.008;5.432;2023-03-05T01:54:55;102172.0;;;12.23;53.58
59654;BME280;66556;52.008;5.432;2023-03-05T01:56:35;102169.0;;;12.28;52.7
59654;BME280;66556;52.008;5.432;2023-03-05T01:59:52;102173.0;;;12.15;53.52
59654;BME280;66556;52.008;5.432;2023-03-05T02:01:40;102167.0;;;11.93;54.05
59654;BME280;66556;52.008;5.432;2023-03-05T02:03:19;102159.0;;;12.23;53.15
59654;BME280;66556;52.008;5.432;2023-03-05T02:05:00;102153.0;;;12.1;53.18
59654;BME280;66556;52.008;5.432;2023-03-05T02:08:20;102157.0;;;12.39;52.42
59654;BME280;66556;52.008;5.432;2023-03-05T02:09:58;102149.0;;;12.24;52.62
59654;BME280;66556;52.008;5.432;2023-03-05T02:11:34;102143.0;;;12.28;52.67
59654;BME280;66556;52.008;5.432;2023-03-05T02:14:52;102148.0;;;12.02;53.13
59654;BME280;66556;52.008;5.432;2023-03-05T02:16:30;102143.0;;;11.8;54.04
59654;BME280;66556;52.008;5.432;2023-03-05T02:18:08;102137.0;;;11.79;53.93
59654;BME280;66556;52.008;5.432;2023-03-05T02:19:48;102137.0;;;11.91;53.9
59654;BME280;66556;52.008;5.432;2023-03-05T02:23:11;102144.0;;;11.82;53.34
59654;BME280;66556;52.008;5.432;2023-03-05T02:24:49;102140.0;;;11.71;54.31
59654;BME280;66556;52.008;5.432;2023-03-05T02:26:26;102133.0;;;11.65;54.57
59654;BME280;66556;52.008;5.432;2023-03-05T02:28:08;102134.0;;;11.63;55.42
59654;BME280;66556;52.008;5.432;2023-03-05T02:31:24;102128.0;;;11.53;55.25
59654;BME280;66556;52.008;5.432;2023-03-05T02:33:01;102122.0;;;11.66;54.89
59654;BME280;66556;52.008;5.432;2023-03-05T02:34:38;102120.0;;;11.93;54.24
59654;BME280;66556;52.008;5.432;2023-03-05T02:37:52;102120.0;;;11.85;54.45
59654;BME280;66556;52.008;5.432;2023-03-05T02:39:29;102121.0;;;11.8;55.05
59654;BME280;66556;52.008;5.432;2023-03-05T02:41:07;102120.0;;;12.09;53.84
59654;BME280;66556;52.008;5.432;2023-03-05T02:42:44;102115.0;;;12.05;53.63
59654;BME280;66556;52.008;5.432;2023-03-05T02:45:58;102115.0;;;11.92;54.24
59654;BME280;66556;52.008;5.432;2023-03-05T02:47:34;102113.0;;;11.84;54.82
59654;BME280;66556;52.008;5.432;2023-03-05T02:49:10;102110.0;;;11.85;54.66
59654;BME280;66556;52.008;5.432;2023-03-05T02:52:23;102107.0;;;11.91;54.61
59654;BME280;66556;52.008;5.432;2023-03-05T02:54:00;102106.0;;;12.04;54.37
59654;BME280;66556;52.008;5.432;2023-03-05T02:55:36;102102.0;;;11.78;55.78
59654;BME280;66556;52.008;5.432;2023-03-05T02:57:13;102101.0;;;11.75;55.59
59654;BME280;66556;52.008;5.432;2023-03-05T03:00:25;102098.0;;;11.93;54.94
59654;BME280;66556;52.008;5.432;2023-03-05T03:02:02;102100.0;;;11.9;55.28
59654;BME280;66556;52.008;5.432;2023-03-05T03:03:39;102089.0;;;11.7;56.06
59654;BME280;66556;52.008;5.432;2023-03-05T03:06:53;102093.0;;;12.03;55.3
59654;BME280;66556;52.008;5.432;2023-03-05T03:08:29;102094.0;;;11.94;55.34
59654;BME280;66556;52.008;5.432;2023-03-05T03:10:06;102088.0;;;11.9;56.09
59654;BME280;66556;52.008;5.432;2023-03-05T03:13:18;102085.0;;;11.97;55.41
59654;BME280;66556;52.008;5.432;2023-03-05T03:14:55;102081.0;;;11.89;55.68
59654;BME280;66556;52.008;5.432;2023-03-05T03:16:32;102072.0;;;11.66;56.63
59654;BME280;66556;52.008;5.432;2023-03-05T03:18:10;102075.0;;;11.99;55.79
59654;BME280;66556;52.008;5.432;2023-03-05T03:21:24;102070.0;;;11.93;55.89
59654;BME280;66556;52.008;5.432;2023-03-05T03:23:00;102060.0;;;11.86;56.38
59654;BME280;66556;52.008;5.432;2023-03-05T03:24:38;102063.0;;;11.83;56.36
59654;BME280;66556;52.008;5.432;2023-03-05T03:27:52;102058.0;;;11.97;55.79
59654;BME280;66556;52.008;5.432;2023-03-05T03:29:28;102055.0;;;12.06;55.25
59654;BME280;66556;52.008;5.432;2023-03-05T03:31:05;102049.0;;;11.77;55.53
59654;BME280;66556;52.008;5.432;2023-03-05T03:34:18;102048.0;;;12.09;54.71
59654;BME280;66556;52.008;5.432;2023-03-05T03:35:55;102052.0;;;11.9;55.4
59654;BME280;66556;52.008;5.432;2023-03-05T03:37:32;102048.0;;;11.91;54.94
59654;BME280;66556;52.008;5.432;2023-03-05T03:39:09;102048.0;;;11.75;55.65
59654;BME280;66556;52.008;5.432;2023-03-05T03:42:23;102047.0;;;11.59;56.3
59654;BME280;66556;52.008;5.432;2023-03-05T03:43:59;102044.0;;;11.55;56.62
59654;BME280;66556;52.008;5.432;2023-03-05T03:45:39;102043.0;;;11.56;56.6
59654;BME280;66556;52.008;5.432;2023-03-05T03:48:54;102036.0;;;11.66;56.36
59654;BME280;66556;52.008;5.432;2023-03-05T03:50:30;102034.0;;;11.67;56.21
59654;BME280;66556;52.008;5.432;2023-03-05T03:52:06;102031.0;;;11.48;56.36
59654;BME280;66556;52.008;5.432;2023-03-05T03:53:43;102030.0;;;11.39;57.33
59654;BME280;66556;52.008;5.432;2023-03-05T03:56:55;102027.0;;;11.64;55.96
59654;BME280;66556;52.008;5.432;2023-03-05T03:58:32;102023.0;;;11.51;56.74
59654;BME280;66556;52.008;5.432;2023-03-05T04:00:09;102017.0;;;11.28;57.33
59654;BME280;66556;52.008;5.432;2023-03-05T04:03:22;102016.0;;;11.43;57.19
59654;BME280;66556;52.008;5.432;2023-03-05T04:04:58;102012.0;;;11.52;56.82
59654;BME280;66556;52.008;5.432;2023-03-05T04:06:34;102007.0;;;11.56;56.38
59654;BME280;66556;52.008;5.432;2023-03-05T04:09:47;102009.0;;;11.67;56.68
59654;BME280;66556;52.008;5.432;2023-03-05T04:11:23;102006.0;;;11.74;55.66
59654;BME280;66556;52.008;5.432;2023-03-05T04:13:00;102006.0;;;11.59;56.39
59654;BME280;66556;52.008;5.432;2023-03-05T04:14:36;102010.0;;;11.54;56.42
59654;BME280;66556;52.008;5.432;2023-03-05T04:17:50;102011.0;;;11.5;56.94
59654;BME280;66556;52.008;5.432;2023-03-05T04:19:26;102007.0;;;11.61;57.0
59654;BME280;66556;52.008;5.432;2023-03-05T04:21:03;102009.0;;;11.53;56.64
59654;BME280;66556;52.008;5.432;2023-03-05T04:24:17;102009.0;;;11.62;56.61
59654;BME280;66556;52.008;5.432;2023-03-05T04:25:53;102007.0;;;11.66;56.25
59654;BME280;66556;52.008;5.432;2023-03-05T04:27:29;102005.0;;;11.56;56.78
59654;BME280;66556;52.008;5.432;2023-03-05T04:30:41;102003.0;;;11.75;56.05
59654;BME280;66556;52.008;5.432;2023-03-05T04:32:18;102001.0;;;11.63;56.64
59654;BME280;66556;52.008;5.432;2023-03-05T04:33:54;102001.0;;;11.54;57.11
59654;BME280;66556;52.008;5.432;2023-03-05T04:37:07;101991.0;;;11.7;56.55
59654;BME280;66556;52.008;5.432;2023-03-05T04:38:43;101997.0;;;11.83;56.74
59654;BME280;66556;52.008;5.432;2023-03-05T04:40:21;101995.0;;;11.62;57.62
59654;BME280;66556;52.008;5.432;2023-03-05T04:41:57;101989.0;;;11.55;57.92
59654;BME280;66556;52.008;5.432;2023-03-05T04:45:10;101996.0;;;11.61;57.91
59654;BME280;66556;52.008;5.432;2023-03-05T04:46:47;101992.0;;;11.66;58.44
59654;BME280;66556;52.008;5.432;2023-03-05T04:48:23;101993.0;;;11.86;57.59
59654;BME280;66556;52.008;5.432;2023-03-05T04:51:36;101993.0;;;11.78;58.18
59654;BME280;66556;52.008;5.432;2023-03-05T04:53:12;101983.0;;;11.93;57.08
59654;BME280;66556;52.008;5.432;2023-03-05T04:54:49;101984.0;;;11.92;56.66
59654;BME280;66556;52.008;5.432;2023-03-05T04:58:01;101977.0;;;12.03;56.21
59654;BME280;66556;52.008;5.432;2023-03-05T04:59:38;101977.0;;;11.89;56.15
59654;BME280;66556;52.008;5.432;2023-03-05T05:01:15;101971.0;;;11.98;56.51
59654;BME280;66556;52.008;5.432;2023-03-05T05:02:52;101974.0;;;11.87;57.04
59654;BME280;66556;52.008;5.432;2023-03-05T05:06:06;101968.0;;;11.94;56.06
59654;BME280;66556;52.008;5.432;2023-03-05T05:07:43;101970.0;;;11.82;56.51
59654;BME280;66556;52.008;5.432;2023-03-05T05:09:20;101970.0;;;11.68;56.52
59654;BME280;66556;52.008;5.432;2023-03-05T05:12:36;101962.0;;;11.71;56.6
59654;BME280;66556;52.008;5.432;2023-03-05T05:14:13;101957.0;;;12.17;55.71
59654;BME280;66556;52.008;5.432;2023-03-05T05:15:49;101965.0;;;11.71;56.38
59654;BME280;66556;52.008;5.432;2023-03-05T05:17:26;101961.0;;;11.74;56.48
59654;BME280;66556;52.008;5.432;2023-03-05T05:20:38;101961.0;;;11.51;57.82
59654;BME280;66556;52.008;5.432;2023-03-05T05:22:14;101957.0;;;11.52;57.64
59654;BME280;66556;52.008;5.432;2023-03-05T05:23:51;101957.0;;;11.56;57.13
59654;BME280;66556;52.008;5.432;2023-03-05T05:27:03;101949.0;;;11.82;56.57
59654;BME280;66556;52.008;5.432;2023-03-05T05:28:40;101951.0;;;11.78;56.47
59654;BME280;66556;52.008;5.432;2023-03-05T05:30:16;101946.0;;;11.7;56.84
59654;BME280;66556;52.008;5.432;2023-03-05T05:33:30;101948.0;;;11.68;56.66
59654;BME280;66556;52.008;5.432;2023-03-05T05:35:06;101949.0;;;11.57;56.93
59654;BME280;66556;52.008;5.432;2023-03-05T05:36:43;101942.0;;;11.59;56.81
59654;BME280;66556;52.008;5.432;2023-03-05T05:38:19;101944.0;;;11.5;57.46
59654;BME280;66556;52.008;5.432;2023-03-05T05:41:34;101941.0;;;11.55;56.99
59654;BME280;66556;52.008;5.432;2023-03-05T05:43:10;101938.0;;;11.51;57.3
59654;BME280;66556;52.008;5.432;2023-03-05T05:44:47;101936.0;;;11.59;56.87
59654;BME280;66556;52.008;5.432;2023-03-05T05:48:00;101941.0;;;11.52;57.06
59654;BME280;66556;52.008;5.432;2023-03-05T05:49:36;101933.0;;;11.78;56.42
59654;BME280;66556;52.008;5.432;2023-03-05T05:51:15;101932.0;;;11.77;56.18
59654;BME280;66556;52.008;5.432;2023-03-05T05:52:55;101934.0;;;11.66;56.26
59654;BME280;66556;52.008;5.432;2023-03-05T05:56:10;101931.0;;;11.57;56.6
59654;BME280;66556;52.008;5.432;2023-03-05T05:57:47;101930.0;;;11.81;56.06
59654;BME280;66556;52.008;5.432;2023-03-05T05:59:23;101930.0;;;11.56;56.61
59654;BME280;66556;52.008;5.432;2023-03-05T06:02:37;101925.0;;;11.66;56.72
59654;BME280;66556;52.008;5.432;2023-03-05T06:04:13;101922.0;;;11.84;56.07
59654;BME280;66556;52.008;5.432;2023-03-05T06:05:49;101921.0;;;11.62;56.47
59654;BME280;66556;52.008;5.432;2023-03-05T06:09:02;101923.0;;;11.42;57.48
59654;BME280;66556;52.008;5.432;2023-03-05T06:10:39;101926.0;;;11.57;57.08
59654;BME280;66556;52.008;5.432;2023-03-05T06:12:15;101925.0;;;11.62;56.69
59654;BME280;66556;52.008;5.432;2023-03-05T06:13:52;101922.0;;;11.67;56.4
59654;BME280;66556;52.008;5.432;2023-03-05T06:17:06;101919.0;;;11.73;56.26
59654;BME280;66556;52.008;5.432;2023-03-05T06:18:42;101922.0;;;11.51;57.03
59654;BME280;66556;52.008;5.432;2023-03-05T06:20:19;101920.0;;;11.65;56.58
59654;BME280;66556;52.008;5.432;2023-03-05T06:23:33;101922.0;;;11.55;56.72
59654;BME280;66556;52.008;5.432;2023-03-05T06:25:09;101920.0;;;11.35;57.94
59654;BME280;66556;52.008;5.432;2023-03-05T06:26:47;101917.0;;;11.55;57.24
59654;BME280;66556;52.008;5.432;2023-03-05T06:29:59;101919.0;;;11.51;57.61
59654;BME280;66556;52.008;5.432;2023-03-05T06:31:37;101923.0;;;11.37;58.12
59654;BME280;66556;52.008;5.432;2023-03-05T06:33:14;101922.0;;;11.64;57.89
59654;BME280;66556;52.008;5.432;2023-03-05T06:34:51;101920.0;;;11.54;57.87
59654;BME280;66556;52.008;5.432;2023-03-05T06:38:05;101925.0;;;11.47;57.76
59654;BME280;66556;52.008;5.432;2023-03-05T06:39:43;101915.0;;;11.68;57.54
59654;BME280;66556;52.008;5.432;2023-03-05T06:41:22;101918.0;;;11.61;57.6
59654;BME280;66556;52.008;5.432;2023-03-05T06:44:38;101922.0;;;11.84;56.69
59654;BME280;66556;52.008;5.432;2023-03-05T06:46:16;101917.0;;;11.74;56.84
59654;BME280;66556;52.008;5.432;2023-03-05T06:47:53;101913.0;;;11.7;56.66
59654;BME280;66556;52.008;5.432;2023-03-05T06:49:30;101911.0;;;11.66;57.68
59654;BME280;66556;52.008;5.432;2023-03-05T06:52:49;101912.0;;;11.55;57.89
59654;BME280;66556;52.008;5.432;2023-03-05T06:54:25;101917.0;;;11.51;58.92
59654;BME280;66556;52.008;5.432;2023-03-05T06:56:01;101918.0;;;11.59;58.19
59654;BME280;66556;52.008;5.432;2023-03-05T06:59:15;101914.0;;;11.68;57.88
59654;BME280;66556;52.008;5.432;2023-03-05T07:00:52;101915.0;;;11.75;57.28
59654;BME280;66556;52.008;5.432;2023-03-05T07:02:28;101915.0;;;11.73;57.41
59654;BME280;66556;52.008;5.432;2023-03-05T07:04:05;101913.0;;;11.63;58.1
59654;BME280;66556;52.008;5.432;2023-03-05T07:07:18;101916.0;;;11.95;57.02
59654;BME280;66556;52.008;5.432;2023-03-05T07:08:55;101919.0;;;11.8;57.5
59654;BME280;66556;52.008;5.432;2023-03-05T07:10:36;101919.0;;;11.6;58.07
59654;BME280;66556;52.008;5.432;2023-03-05T07:15:26;101915.0;;;12.02;57.15
59654;BME280;66556;52.008;5.432;2023-03-05T07:17:04;101914.0;;;12.05;57.27
59654;BME280;66556;52.008;5.432;2023-03-05T07:20:18;101913.0;;;12.1;56.43
59654;BME280;66556;52.008;5.432;2023-03-05T07:21:54;101911.0;;;12.02;56.69
59654;BME280;66556;52.008;5.432;2023-03-05T07:23:30;101911.0;;;11.96;57.07
59654;BME280;66556;52.008;5.432;2023-03-05T07:25:07;101908.0;;;11.85;57.28
59654;BME280;66556;52.008;5.432;2023-03-05T07:28:21;101908.0;;;12.11;57.17
59654;BME280;66556;52.008;5.432;2023-03-05T07:29:58;101909.0;;;12.05;57.36
59654;BME280;66556;52.008;5.432;2023-03-05T07:31:34;101906.0;;;12.18;57.03
59654;BME280;66556;52.008;5.432;2023-03-05T07:34:46;101907.0;;;12.11;57.07
59654;BME280;66556;52.008;5.432;2023-03-05T07:36:22;101907.0;;;12.13;57.66
59654;BME280;66556;52.008;5.432;2023-03-05T07:37:59;101906.0;;;12.17;57.45
59654;BME280;66556;52.008;5.432;2023-03-05T07:41:14;101902.0;;;12.12;57.85
59654;BME280;66556;52.008;5.432;2023-03-05T07:42:51;101908.0;;;12.21;57.25
59654;BME280;66556;52.008;5.432;2023-03-05T07:44:27;101905.0;;;12.12;57.52
59654;BME280;66556;52.008;5.432;2023-03-05T07:46:04;101901.0;;;12.53;57.24
59654;BME280;66556;52.008;5.432;2023-03-05T07:49:19;101902.0;;;12.71;56.94
59654;BME280;66556;52.008;5.432;2023-03-05T07:51:03;101903.0;;;12.54;56.53
59654;BME280;66556;52.008;5.432;2023-03-05T07:52:41;101897.0;;;12.57;56.51
59654;BME280;66556;52.008;5.432;2023-03-05T07:54:17;101900.0;;;12.78;56.76
59654;BME280;66556;52.008;5.432;2023-03-05T07:57:30;101900.0;;;12.76;57.17
59654;BME280;66556;52.008;5.432;2023-03-05T07:59:09;101895.0;;;12.78;57.6
59654;BME280;66556;52.008;5.432;2023-03-05T08:00:47;101898.0;;;12.91;56.65
59654;BME280;66556;52.008;5.432;2023-03-05T08:04:00;101891.0;;;12.71;57.12
59654;BME280;66556;52.008;5.432;2023-03-05T08:05:37;101891.0;;;12.9;56.26
59654;BME280;66556;52.008;5.432;2023-03-05T08:07:14;101889.0;;;12.75;56.83
59654;BME280;66556;52.008;5.432;2023-03-05T08:10:28;101892.0;;;12.94;56.02
59654;BME280;66556;52.008;5.432;2023-03-05T08:12:05;101888.0;;;13.0;55.71
59654;BME280;66556;52.008;5.432;2023-03-05T08:13:43;101887.0;;;12.92;56.24
59654;BME280;66556;52.008;5.432;2023-03-05T08:15:20;101886.0;;;13.08;56.29
59654;BME280;66556;52.008;5.432;2023-03-05T08:18:33;101886.0;;;12.79;56.79
59654;BME280;66556;52.008;5.432;2023-03-05T08:20:10;101889.0;;;13.0;55.98
59654;BME280;66556;52.008;5.432;2023-03-05T08:21:47;101886.0;;;12.9;56.34
59654;BME280;66556;52.008;5.432;2023-03-05T08:25:02;101887.0;;;12.97;55.98
59654;BME280;66556;52.008;5.432;2023-03-05T08:26:40;101884.0;;;13.05;56.3
59654;BME280;66556;52.008;5.432;2023-03-05T08:28:16;101881.0;;;13.09;55.22
59654;BME280;66556;52.008;5.432;2023-03-05T08:29:52;101883.0;;;13.04;55.85
59654;BME280;66556;52.008;5.432;2023-03-05T08:33:05;101877.0;;;13.12;55.6
59654;BME280;66556;52.008;5.432;2023-03-05T08:34:42;101872.0;;;12.98;56.09
59654;BME280;66556;52.008;5.432;2023-03-05T08:36:18;101870.0;;;13.26;55.41
59654;BME280;66556;52.008;5.432;2023-03-05T08:39:31;101867.0;;;13.27;55.46
59654;BME280;66556;52.008;5.432;2023-03-05T08:41:07;101867.0;;;13.42;55.58
59654;BME280;66556;52.008;5.432;2023-03-05T08:42:44;101863.0;;;13.44;55.68
59654;BME280;66556;52.008;5.432;2023-03-05T08:45:58;101860.0;;;13.72;54.79
59654;BME280;66556;52.008;5.432;2023-03-05T08:47:36;101860.0;;;13.35;55.27
59654;BME280;66556;52.008;5.432;2023-03-05T08:49:13;101859.0;;;13.29;55.78
59654;BME280;66556;52.008;5.432;2023-03-05T08:50:50;101861.0;;;13.41;56.23
59654;BME280;66556;52.008;5.432;2023-03-05T08:54:03;101860.0;;;13.4;55.69
59654;BME280;66556;52.008;5.432;2023-03-05T08:55:40;101855.0;;;13.72;55.25
59654;BME280;66556;52.008;5.432;2023-03-05T08:57:16;101855.0;;;13.55;54.58
59654;BME280;66556;52.008;5.432;2023-03-05T09:00:28;101852.0;;;13.6;54.58
59654;BME280;66556;52.008;5.432;2023-03-05T09:02:05;101852.0;;;13.56;54.5
59654;BME280;66556;52.008;5.432;2023-03-05T09:03:42;101849.0;;;13.82;52.95
59654;BME280;66556;52.008;5.432;2023-03-05T09:06:55;101844.0;;;13.6;53.01
59654;BME280;66556;52.008;5.432;2023-03-05T09:08:32;101847.0;;;13.76;52.88
59654;BME280;66556;52.008;5.432;2023-03-05T09:10:11;101844.0;;;13.9;52.8
59654;BME280;66556;52.008;5.432;2023-03-05T09:11:48;101844.0;;;13.9;53.48
59654;BME280;66556;52.008;5.432;2023-03-05T09:15:02;101842.0;;;13.98;53.98
59654;BME280;66556;52.008;5.432;2023-03-05T09:16:39;101837.0;;;14.24;51.57
59654;BME280;66556;52.008;5.432;2023-03-05T09:18:15;101842.0;;;14.51;51.0
59654;BME280;66556;52.008;5.432;2023-03-05T09:21:27;101837.0;;;14.72;50.84
59654;BME280;66556;52.008;5.432;2023-03-05T09:23:03;101836.0;;;14.6;51.66
59654;BME280;66556;52.008;5.432;2023-03-05T09:24:40;101840.0;;;14.7;53.15
59654;BME280;66556;52.008;5.432;2023-03-05T09:27:54;101835.0;;;14.66;52.01
59654;BME280;66556;52.008;5.432;2023-03-05T09:29:30;101832.0;;;14.83;50.3
59654;BME280;66556;52.008;5.432;2023-03-05T09:31:07;101825.0;;;14.98;49.4
59654;BME280;66556;52.008;5.432;2023-03-05T09:32:44;101825.0;;;14.6;50.26
59654;BME280;66556;52.008;5.432;2023-03-05T09:35:58;101827.0;;;14.48;50.5
59654;BME280;66556;52.008;5.432;2023-03-05T09:37:35;101828.0;;;14.64;50.52
59654;BME280;66556;52.008;5.432;2023-03-05T09:39:12;101833.0;;;14.64;48.53
59654;BME280;66556;52.008;5.432;2023-03-05T09:42:47;101830.0;;;14.72;48.6
59654;BME280;66556;52.008;5.432;2023-03-05T09:44:40;101833.0;;;14.66;50.31
59654;BME280;66556;52.008;5.432;2023-03-05T09:46:30;101831.0;;;14.8;50.31
59654;BME280;66556;52.008;5.432;2023-03-05T09:48:16;101832.0;;;14.69;50.7
59654;BME280;66556;52.008;5.432;2023-03-05T09:49:58;101832.0;;;15.05;49.81
59654;BME280;66556;52.008;5.432;2023-03-05T09:51:39;101835.0;;;14.82;50.55
59654;BME280;66556;52.008;5.432;2023-03-05T09:55:11;101827.0;;;14.52;50.49
59654;BME280;66556;52.008;5.432;2023-03-05T09:57:01;101831.0;;;14.47;50.43
59654;BME280;66556;52.008;5.432;2023-03-05T09:58:41;101824.0;;;14.62;50.08
59654;BME280;66556;52.008;5.432;2023-03-05T10:00:28;101825.0;;;14.62;50.38
59654;BME280;66556;52.008;5.432;2023-03-05T10:02:16;101821.0;;;14.6;50.06
59654;BME280;66556;52.008;5.432;2023-03-05T10:05:45;101818.0;;;14.51;50.18
59654;BME280;66556;52.008;5.432;2023-03-05T10:07:29;101815.0;;;14.49;49.57
59654;BME280;66556;52.008;5.432;2023-03-05T10:09:11;101812.0;;;14.57;49.29
59654;BME280;66556;52.008;5.432;2023-03-05T10:10:52;101808.0;;;14.86;49.24
59654;BME280;66556;52.008;5.432;2023-03-05T10:12:37;101807.0;;;14.98;49.37
59654;BME280;66556;52.008;5.432;2023-03-05T10:16:05;101805.0;;;14.88;49.53
59654;BME280;66556;52.008;5.432;2023-03-05T10:18:18;101805.0;;;14.8;50.3
59654;BME280;66556;52.008;5.432;2023-03-05T10:20:06;101800.0;;;14.87;49.46
59654;BME280;66556;52.008;5.432;2023-03-05T10:22:06;101802.0;;;14.94;49.34
59654;BME280;66556;52.008;5.432;2023-03-05T10:23:59;101796.0;;;14.98;49.29
59654;BME280;66556;52.008;5.432;2023-03-05T10:26:11;101799.0;;;14.94;48.36
59654;BME280;66556;52.008;5.432;2023-03-05T10:27:51;101794.0;;;14.71;48.24
59654;BME280;66556;52.008;5.432;2023-03-05T10:30:11;101791.0;;;14.97;48.04
59654;BME280;66556;52.008;5.432;2023-03-05T10:32:02;101785.0;;;15.18;47.03
59654;BME280;66556;52.008;5.432;2023-03-05T10:33:47;101788.0;;;15.09;48.06
59654;BME280;66556;52.008;5.432;2023-03-05T10:35:50;101789.0;;;15.07;47.5
59654;BME280;66556;52.008;5.432;2023-03-05T10:38:24;101785.0;;;15.06;46.75
59654;BME280;66556;52.008;5.432;2023-03-05T10:40:16;101780.0;;;15.1;47.41
59654;BME280;66556;52.008;5.432;2023-03-05T10:42:01;101778.0;;;15.04;47.76
59654;BME280;66556;52.008;5.432;2023-03-05T10:43:50;101782.0;;;15.12;46.74
59654;BME280;66556;52.008;5.432;2023-03-05T10:47:15;101771.0;;;15.23;46.89
59654;BME280;66556;52.008;5.432;2023-03-05T10:48:58;101765.0;;;15.29;47.33
59654;BME280;66556;52.008;5.432;2023-03-05T10:50:42;101765.0;;;15.6;46.03
59654;BME280;66556;52.008;5.432;2023-03-05T10:52:26;101757.0;;;15.33;46.18
59654;BME280;66556;52.008;5.432;2023-03-05T10:55:54;101757.0;;;15.33;46.78
59654;BME280;66556;52.008;5.432;2023-03-05T10:57:30;101755.0;;;15.49;46.92
59654;BME280;66556;52.008;5.432;2023-03-05T10:59:07;101747.0;;;15.48;46.94
59654;BME280;66556;52.008;5.432;2023-03-05T11:00:57;101750.0;;;14.87;47.67
59654;BME280;66556;52.008;5.432;2023-03-05T11:02:53;101745.0;;;14.86;47.37
59654;BME280;66556;52.008;5.432;2023-03-05T11:06:12;101739.0;;;15.01;48.01
59654;BME280;66556;52.008;5.432;2023-03-05T11:07:49;101735.0;;;15.3;46.93
59654;BME280;66556;52.008;5.432;2023-03-05T11:09:28;101732.0;;;15.33;46.14